Time;durP1;ratioP1;P1;durP2;ratioP2;P2;SDS_P1;SDS_P2;PMS_P1;PMS_P2;Temp;Humidity;BMP_temperature;BMP_pressure;BME280_temperature;BME280_humidity;BME280_pressure;Samples;Min_cycle;Max_cycle;Signal;HPM_P1;HPM_P2
2023/02/13 00:00:17;;;;;;;1.95;1.02;;;0.90;99.90;;;;;;5029918;28;20208;-66
2023/02/13 00:02:44;;;;;;;1.98;1.30;;;0.80;99.90;;;;;;5030534;28;20547;-67
2023/02/13 00:05:11;;;;;;;2.42;2.20;;;0.80;99.90;;;;;;5029664;28;20220;-68
2023/02/13 00:07:37;;;;;;;4.00;2.80;;;0.80;99.90;;;;;;5033674;28;20624;-66
2023/02/13 00:10:05;;;;;;;1.67;1.58;;;0.80;99.90;;;;;;5050267;28;20214;-66
2023/02/13 00:12:33;;;;;;;3.58;2.53;;;0.80;99.90;;;;;;5049847;28;20215;-66
2023/02/13 00:15:00;;;;;;;4.90;2.42;;;0.80;99.90;;;;;;5050026;28;20195;-66
2023/02/13 00:17:27;;;;;;;2.50;2.30;;;0.70;99.90;;;;;;5049672;28;20236;-66
2023/02/13 00:19:54;;;;;;;1.60;1.50;;;0.70;99.90;;;;;;5041552;28;20201;-66
2023/02/13 00:22:21;;;;;;;5.40;1.80;;;0.70;99.90;;;;;;5029768;28;20306;-67
2023/02/13 00:24:47;;;;;;;0.80;0.80;;;0.60;99.90;;;;;;5029677;28;20693;-67
2023/02/13 00:27:14;;;;;;;1.88;0.90;;;0.70;99.90;;;;;;5029743;28;20228;-66
2023/02/13 00:29:42;;;;;;;3.42;1.90;;;0.70;99.90;;;;;;5029534;28;20204;-66
2023/02/13 00:32:09;;;;;;;1.30;1.23;;;0.70;99.90;;;;;;5039859;28;20227;-66
2023/02/13 00:34:36;;;;;;;1.35;1.25;;;0.70;99.90;;;;;;5048736;28;20279;-67
2023/02/13 00:37:03;;;;;;;2.45;1.77;;;0.70;99.90;;;;;;5049965;28;20710;-66
2023/02/13 00:39:30;;;;;;;2.85;2.08;;;0.60;99.90;;;;;;5064500;28;20195;-68
2023/02/13 00:41:56;;;;;;;1.75;1.65;;;0.60;99.90;;;;;;5049484;28;20238;-66
2023/02/13 00:44:23;;;;;;;2.55;2.35;;;0.60;99.90;;;;;;5048279;28;20286;-66
2023/02/13 00:46:51;;;;;;;1.65;1.55;;;0.70;99.90;;;;;;5048956;28;20219;-66
2023/02/13 00:49:18;;;;;;;3.70;2.35;;;0.70;99.90;;;;;;5032361;28;20915;-66
2023/02/13 00:51:45;;;;;;;2.00;1.80;;;0.70;99.90;;;;;;5029255;28;20228;-67
2023/02/13 00:54:11;;;;;;;4.78;2.95;;;0.70;99.90;;;;;;5029430;28;20208;-66
2023/02/13 00:56:38;;;;;;;2.00;1.48;;;0.70;99.90;;;;;;5029124;28;20229;-66
2023/02/13 00:59:05;;;;;;;6.03;1.92;;;0.70;99.90;;;;;;5047302;28;20199;-66
2023/02/13 01:01:32;;;;;;;1.70;1.50;;;0.70;99.90;;;;;;5048423;28;20240;-67
2023/02/13 01:04:00;;;;;;;1.83;1.70;;;0.60;99.90;;;;;;5049175;28;20585;-66
2023/02/13 01:06:27;;;;;;;2.80;2.60;;;0.60;99.90;;;;;;5048986;28;20228;-66
2023/02/13 01:08:54;;;;;;;3.80;3.08;;;0.60;99.90;;;;;;5035562;28;20226;-66
2023/02/13 01:11:21;;;;;;;2.60;1.52;;;0.60;99.90;;;;;;5034024;28;20258;-66
2023/02/13 01:13:48;;;;;;;7.50;3.28;;;0.50;99.90;;;;;;5029262;28;20208;-67
2023/02/13 01:16:16;;;;;;;1.10;1.10;;;0.60;99.90;;;;;;5027858;28;20232;-67
2023/02/13 01:18:43;;;;;;;6.75;2.63;;;0.50;99.90;;;;;;5028876;28;20201;-66
2023/02/13 01:21:16;;;;;;;1.70;1.60;;;0.50;99.90;;;;;;5029093;28;20655;-66
2023/02/13 01:23:43;;;;;;;2.00;1.90;;;0.50;99.90;;;;;;5028570;28;20211;-66
2023/02/13 01:26:16;;;;;;;2.90;1.58;;;0.50;99.90;;;;;;5028684;28;20259;-66
2023/02/13 01:28:42;;;;;;;1.58;1.45;;;0.50;99.90;;;;;;5039099;28;20242;-67
2023/02/13 01:31:09;;;;;;;1.42;1.33;;;0.50;99.90;;;;;;5048544;28;20228;-66
2023/02/13 01:33:36;;;;;;;2.92;2.72;;;0.40;99.90;;;;;;5048420;28;20207;-66
2023/02/13 01:36:06;;;;;;;8.52;2.05;;;0.50;99.90;;;;;;5047680;28;20234;-67
2023/02/13 01:38:34;;;;;;;13.00;2.95;;;0.40;99.90;;;;;;5045229;28;20223;-66
2023/02/13 01:41:01;;;;;;;1.92;1.73;;;0.40;99.90;;;;;;5065497;28;20215;-66
2023/02/13 01:43:44;;;;;;;0.80;0.80;;;0.40;99.90;;;;;;5068006;28;20688;-66
2023/02/13 01:46:13;;;;;;;1.52;1.40;;;0.40;99.90;;;;;;5068339;28;20223;-66
2023/02/13 01:48:39;;;;;;;3.40;2.10;;;0.40;99.90;;;;;;5055486;28;20231;-66
2023/02/13 01:51:10;;;;;;;2.80;1.65;;;0.40;99.90;;;;;;5047942;28;20588;-66
2023/02/13 01:53:42;;;;;;;1.75;1.45;;;0.40;99.90;;;;;;5047972;28;20228;-66
2023/02/13 01:56:14;;;;;;;17.10;2.17;;;0.40;99.90;;;;;;5046983;28;20700;-66
2023/02/13 01:58:44;;;;;;;4.75;2.38;;;0.30;99.90;;;;;;5037433;28;20196;-66
2023/02/13 02:01:12;;;;;;;5.38;3.15;;;0.30;99.90;;;;;;5027853;28;20258;-66
2023/02/13 02:03:45;;;;;;;3.20;2.92;;;0.40;99.90;;;;;;5027998;28;20283;-66
2023/02/13 02:06:18;;;;;;;3.75;2.90;;;0.40;99.90;;;;;;5026483;28;20220;-67
2023/02/13 02:08:48;;;;;;;1.83;1.65;;;0.40;99.90;;;;;;5027898;28;20240;-66
2023/02/13 02:11:22;;;;;;;4.72;3.65;;;0.30;99.90;;;;;;5041022;28;20849;-66
2023/02/13 02:13:50;;;;;;;3.53;3.17;;;0.30;99.90;;;;;;5047873;28;20694;-66
2023/02/13 02:16:18;;;;;;;5.07;2.00;;;0.20;99.90;;;;;;5047703;28;20247;-66
2023/02/13 02:18:46;;;;;;;0.80;0.80;;;0.20;99.90;;;;;;5030127;28;20200;-66
2023/02/13 02:21:42;;;;;;;1.02;1.02;;;0.30;99.90;;;;;;5027816;28;20235;-66
2023/02/13 02:24:45;;;;;;;1.75;1.58;;;0.20;99.90;;;;;;5028270;28;20742;-66
2023/02/13 02:27:36;;;;;;;5.10;2.30;;;0.20;99.90;;;;;;5029656;28;20679;-66
2023/02/13 02:30:38;;;;;;;1.73;1.70;;;0.20;99.90;;;;;;5018877;28;20215;-66
2023/02/13 02:33:22;;;;;;;2.53;1.95;;;0.20;99.90;;;;;;5028703;28;20574;-67
2023/02/13 02:35:57;;;;;;;0.80;0.80;;;0.20;99.90;;;;;;5027245;28;20602;-66
2023/02/13 02:38:40;;;;;;;1.90;1.20;;;0.20;99.90;;;;;;5043160;28;20218;-66
2023/02/13 02:41:40;;;;;;;2.38;2.17;;;0.20;99.90;;;;;;5065775;28;20249;-66
2023/02/13 02:44:10;;;;;;;3.53;1.35;;;0.10;99.90;;;;;;5056481;28;20757;-66
2023/02/13 02:49:57;;;;;;;2.75;2.20;;;0.10;99.90;;;;;;5028088;28;20250;-67
2023/02/13 02:52:32;;;;;;;3.45;3.15;;;0.10;99.90;;;;;;5027683;28;20220;-66
2023/02/13 02:55:07;;;;;;;4.53;2.33;;;0.10;99.90;;;;;;5027468;28;20686;-66
2023/02/13 03:06:12;;;;;;;4.72;3.53;;;0.10;99.90;;;;;;5027298;28;20830;-66
2023/02/13 03:14:15;;;;;;;2.63;2.42;;;0.10;99.90;;;;;;5047392;28;20207;-66
2023/02/13 03:22:36;;;;;;;1.27;1.20;;;0.10;99.90;;;;;;5027077;28;20277;-67
2023/02/13 03:25:11;;;;;;;3.17;2.97;;;0.10;99.90;;;;;;5027293;28;20189;-68
2023/02/13 03:30:43;;;;;;;3.40;2.15;;;0.00;99.90;;;;;;5026957;28;20223;-67
2023/02/13 03:33:26;;;;;;;0.73;0.73;;;0.00;99.90;;;;;;5037580;28;20199;-67
2023/02/13 03:38:56;;;;;;;5.18;1.30;;;0.00;99.90;;;;;;5061972;28;20207;-67
2023/02/13 03:41:29;;;;;;;1.77;1.42;;;0.10;99.90;;;;;;5030240;28;20217;-67
2023/02/13 03:44:08;;;;;;;2.17;1.33;;;0.10;99.90;;;;;;5030976;28;20200;-67
2023/02/13 03:46:38;;;;;;;2.35;1.65;;;0.10;99.90;;;;;;5050393;28;20227;-67
2023/02/13 03:51:59;;;;;;;4.10;2.60;;;0.10;99.90;;;;;;5030372;28;20699;-67
2023/02/13 04:00:11;;;;;;;1.88;1.77;;;0.10;99.90;;;;;;5049866;28;20207;-67
2023/02/13 04:02:47;;;;;;;1.60;1.58;;;0.10;99.90;;;;;;5050373;28;20208;-67
2023/02/13 04:05:18;;;;;;;10.75;2.78;;;0.10;99.90;;;;;;5050073;28;20980;-67
2023/02/13 04:07:45;;;;;;;2.45;1.88;;;0.10;99.90;;;;;;5048120;28;20199;-67
2023/02/13 04:10:16;;;;;;;8.07;1.80;;;0.10;99.90;;;;;;5029781;28;20320;-67
2023/02/13 04:12:53;;;;;;;4.80;4.50;;;0.10;99.90;;;;;;5030007;28;20203;-67
2023/02/13 04:15:23;;;;;;;3.35;2.55;;;-0.10;99.90;;;;;;5029732;28;20200;-67
2023/02/13 04:17:54;;;;;;;3.13;2.95;;;0.00;99.90;;;;;;5033394;28;20235;-66
2023/02/13 04:20:21;;;;;;;4.40;2.05;;;0.00;99.90;;;;;;5049728;28;20286;-66
2023/02/13 04:22:48;;;;;;;1.70;1.60;;;0.50;99.90;;;;;;5049783;28;20547;-66
2023/02/13 04:25:18;;;;;;;2.25;2.05;;;-0.10;99.90;;;;;;5039843;28;20212;-67
2023/02/13 04:27:45;;;;;;;3.63;3.35;;;-0.30;99.90;;;;;;5031464;28;20287;-67
2023/02/13 04:30:13;;;;;;;1.20;1.20;;;-0.10;99.90;;;;;;5049131;28;20235;-67
2023/02/13 04:32:40;;;;;;;5.10;1.80;;;-0.10;99.90;;;;;;5049405;28;20215;-67
2023/02/13 04:35:08;;;;;;;1.95;1.58;;;-0.10;99.90;;;;;;5049602;28;20199;-68
2023/02/13 04:37:34;;;;;;;4.20;2.40;;;-0.10;99.90;;;;;;5054773;28;20222;-67
2023/02/13 04:40:01;;;;;;;5.22;4.13;;;-0.10;99.90;;;;;;5057037;28;20199;-68
2023/02/13 04:42:29;;;;;;;1.55;1.25;;;-0.10;99.90;;;;;;5069023;28;20223;-68
2023/02/13 04:44:56;;;;;;;6.85;3.85;;;-0.10;99.90;;;;;;5069337;28;20184;-67
2023/02/13 04:47:23;;;;;;;1.73;1.63;;;-0.10;99.90;;;;;;5069413;28;20230;-67
2023/02/13 04:49:50;;;;;;;1.40;1.30;;;-0.10;99.90;;;;;;5068952;28;20435;-67
2023/02/13 04:52:17;;;;;;;0.82;0.82;;;-0.10;99.90;;;;;;5047486;28;20274;-67
2023/02/13 04:54:44;;;;;;;5.25;2.88;;;-0.10;99.90;;;;;;5048980;28;20215;-67
2023/02/13 04:57:14;;;;;;;4.78;2.63;;;-0.30;99.90;;;;;;5048755;28;20223;-67
2023/02/13 04:59:42;;;;;;;4.30;4.00;;;-0.10;99.90;;;;;;5029222;28;20212;-67
2023/02/13 05:02:09;;;;;;;1.75;1.65;;;-0.20;99.90;;;;;;5037245;28;20243;-67
2023/02/13 05:04:35;;;;;;;1.75;1.63;;;-0.20;99.90;;;;;;5049113;28;20537;-67
2023/02/13 05:07:02;;;;;;;2.25;2.10;;;-0.20;99.90;;;;;;5048789;28;20239;-67
2023/02/13 05:09:29;;;;;;;19.20;5.35;;;2.20;99.90;;;;;;5047995;28;20716;-68
2023/02/13 05:11:56;;;;;;;0.90;0.90;;;-0.20;99.90;;;;;;5042755;28;20619;-67
2023/02/13 05:14:23;;;;;;;3.45;3.25;;;-0.20;99.90;;;;;;5028967;28;20797;-67
2023/02/13 05:16:51;;;;;;;4.32;3.42;;;-0.20;99.90;;;;;;5028749;28;20220;-67
2023/02/13 05:19:17;;;;;;;1.42;1.27;;;-0.20;99.90;;;;;;5046294;28;20688;-68
2023/02/13 05:24:28;;;;;;;1.05;1.05;;;-0.10;99.90;;;;;;5048738;28;20326;-68
2023/02/13 05:26:55;;;;;;;1.63;1.52;;;-0.10;99.90;;;;;;5048732;28;20240;-69
2023/02/13 05:29:22;;;;;;;3.42;3.17;;;-0.20;99.90;;;;;;5030263;28;20221;-68
2023/02/13 05:31:52;;;;;;;2.65;2.45;;;-0.20;99.90;;;;;;5028416;28;20287;-68
2023/02/13 05:34:19;;;;;;;0.90;0.90;;;-0.10;99.90;;;;;;5028291;28;20193;-68
2023/02/13 05:36:46;;;;;;;1.38;1.25;;;-0.20;99.90;;;;;;5038104;28;20773;-67
2023/02/13 05:39:14;;;;;;;2.88;2.13;;;-0.20;99.90;;;;;;5053888;28;20203;-68
2023/02/13 05:41:41;;;;;;;1.83;1.08;;;-0.30;99.90;;;;;;5068488;28;20223;-68
2023/02/13 05:44:08;;;;;;;5.22;2.40;;;-0.30;99.90;;;;;;5068273;28;20601;-69
2023/02/13 05:46:36;;;;;;;4.45;2.25;;;-0.30;99.90;;;;;;5068124;28;20238;-68
2023/02/13 05:49:04;;;;;;;3.00;2.72;;;-0.30;99.90;;;;;;5053351;28;20234;-69
2023/02/13 05:51:31;;;;;;;2.05;1.50;;;-0.20;99.90;;;;;;5048211;28;21019;-69
2023/02/13 05:53:58;;;;;;;4.20;1.20;;;-0.30;99.90;;;;;;5048584;28;20199;-68
2023/02/13 05:56:25;;;;;;;0.70;0.70;;;-0.20;99.90;;;;;;5048013;28;20234;-67
2023/02/13 05:58:52;;;;;;;2.17;2.03;;;-0.20;99.90;;;;;;5036450;28;20232;-68
2023/02/13 06:01:19;;;;;;;2.03;1.88;;;-0.20;99.90;;;;;;5038493;28;20224;-68
2023/02/13 06:03:46;;;;;;;3.60;2.83;;;-0.20;99.90;;;;;;5046654;28;20285;-68
2023/02/13 06:06:14;;;;;;;5.68;3.15;;;-0.20;99.90;;;;;;5046988;28;20224;-68
2023/02/13 06:08:46;;;;;;;2.20;2.10;;;-0.20;99.90;;;;;;5046908;28;20224;-68
2023/02/13 06:11:14;;;;;;;2.97;2.67;;;-0.20;99.90;;;;;;5045882;28;20255;-68
2023/02/13 06:13:41;;;;;;;2.38;2.15;;;-0.20;99.90;;;;;;5045980;28;20212;-68
2023/02/13 06:16:08;;;;;;;4.50;1.95;;;-0.20;99.90;;;;;;5035899;28;20224;-69
2023/02/13 06:18:35;;;;;;;2.15;0.80;;;-0.20;99.90;;;;;;5033886;28;20204;-69
2023/02/13 06:21:02;;;;;;;4.32;2.05;;;-0.20;99.90;;;;;;5041849;28;20231;-68
2023/02/13 06:23:31;;;;;;;1.77;1.55;;;0.00;99.90;;;;;;5037642;28;20204;-68
2023/02/13 06:26:01;;;;;;;3.40;3.10;;;0.00;99.90;;;;;;5040515;28;20713;-68
2023/02/13 06:28:28;;;;;;;2.63;2.42;;;0.10;99.90;;;;;;5039661;28;20202;-69
2023/02/13 06:30:55;;;;;;;1.73;1.63;;;0.00;99.90;;;;;;5036434;28;20220;-68
2023/02/13 06:33:24;;;;;;;2.25;2.05;;;0.00;99.90;;;;;;5035775;28;20217;-70
2023/02/13 06:35:51;;;;;;;2.63;2.53;;;-0.10;99.90;;;;;;5036375;28;20751;-68
2023/02/13 06:38:18;;;;;;;10.35;2.78;;;-0.10;99.90;;;;;;5037985;28;20201;-68
2023/02/13 06:40:46;;;;;;;3.92;2.40;;;-0.10;99.90;;;;;;5036704;28;20748;-68
2023/02/13 06:43:14;;;;;;;2.95;2.55;;;0.00;99.90;;;;;;5035711;28;20196;-69
2023/02/13 06:45:42;;;;;;;4.70;2.55;;;-0.20;99.90;;;;;;5036842;28;20223;-69
2023/02/13 06:48:13;;;;;;;2.65;2.42;;;-0.10;99.90;;;;;;5043498;28;20296;-70
2023/02/13 06:50:55;;;;;;;9.50;3.78;;;-0.10;99.90;;;;;;5026590;28;20760;-70
2023/02/13 06:53:32;;;;;;;7.05;3.65;;;0.00;99.90;;;;;;5028300;28;20200;-71
2023/02/13 06:56:03;;;;;;;5.65;3.60;;;0.10;99.90;;;;;;5041224;28;20229;-67
2023/02/13 06:58:30;;;;;;;2.70;2.60;;;0.20;99.90;;;;;;5043990;28;20199;-69
2023/02/13 07:00:57;;;;;;;2.95;1.67;;;0.20;99.90;;;;;;5043660;28;20630;-67
2023/02/13 07:03:24;;;;;;;2.55;1.88;;;0.30;99.90;;;;;;5046026;28;20204;-67
2023/02/13 07:05:51;;;;;;;3.20;2.38;;;0.30;99.90;;;;;;5045331;28;20244;-68
2023/02/13 07:08:18;;;;;;;1.90;1.80;;;0.50;99.90;;;;;;5033833;28;20682;-68
2023/02/13 07:10:45;;;;;;;7.07;3.65;;;0.40;99.90;;;;;;5025254;28;20597;-67
2023/02/13 07:13:13;;;;;;;3.55;3.35;;;0.40;99.90;;;;;;5026152;28;20220;-66
2023/02/13 07:15:40;;;;;;;2.80;2.63;;;0.40;99.90;;;;;;5035380;28;20706;-67
2023/02/13 07:18:07;;;;;;;5.35;3.78;;;0.40;99.90;;;;;;5039522;28;20563;-67
2023/02/13 07:20:34;;;;;;;2.92;2.17;;;0.50;99.90;;;;;;5039099;28;20221;-69
2023/02/13 07:23:03;;;;;;;5.50;2.63;;;0.50;99.90;;;;;;5046167;28;20202;-66
2023/02/13 07:25:30;;;;;;;3.45;2.80;;;0.50;99.90;;;;;;5048318;28;20242;-66
2023/02/13 07:28:02;;;;;;;2.15;1.63;;;0.60;99.90;;;;;;5034783;28;20202;-66
2023/02/13 07:30:30;;;;;;;4.78;3.20;;;0.60;99.90;;;;;;5045166;28;20236;-68
2023/02/13 07:32:59;;;;;;;4.68;4.30;;;0.70;99.90;;;;;;5048967;28;20204;-68
2023/02/13 07:35:26;;;;;;;2.65;2.55;;;0.80;99.90;;;;;;5047350;28;20302;-68
2023/02/13 07:37:53;;;;;;;1.67;1.58;;;0.90;99.90;;;;;;5050962;28;20207;-68
2023/02/13 07:40:20;;;;;;;5.15;4.55;;;1.00;99.90;;;;;;5049213;28;20205;-68
2023/02/13 07:42:47;;;;;;;1.23;1.23;;;1.00;99.90;;;;;;5038443;28;20207;-68
2023/02/13 07:45:14;;;;;;;1.88;1.77;;;1.10;99.90;;;;;;5039818;28;20201;-68
2023/02/13 07:47:43;;;;;;;5.07;4.45;;;1.20;99.90;;;;;;5038050;28;20208;-69
2023/02/13 07:50:10;;;;;;;3.33;2.97;;;1.30;99.90;;;;;;5033148;28;20235;-69
2023/02/13 07:52:37;;;;;;;9.30;2.70;;;1.30;99.90;;;;;;5029525;28;20210;-67
2023/02/13 07:55:05;;;;;;;4.35;4.05;;;1.30;99.90;;;;;;5029152;28;20213;-65
2023/02/13 07:57:32;;;;;;;11.60;3.83;;;1.40;99.90;;;;;;5043638;28;20203;-66
2023/02/13 07:59:58;;;;;;;2.45;1.60;;;1.40;99.90;;;;;;5028926;28;20723;-67
2023/02/13 08:02:25;;;;;;;4.53;4.18;;;1.40;99.90;;;;;;5036660;28;20226;-67
2023/02/13 08:04:53;;;;;;;2.53;2.40;;;1.50;99.90;;;;;;5048945;28;20204;-66
2023/02/13 08:07:20;;;;;;;2.88;2.15;;;1.70;99.90;;;;;;5049326;28;20604;-66
2023/02/13 08:12:33;;;;;;;2.80;2.60;;;1.90;99.90;;;;;;5028573;28;20331;-67
2023/02/13 08:14:59;;;;;;;4.25;3.78;;;1.90;99.90;;;;;;5028036;28;20203;-67
2023/02/13 08:17:30;;;;;;;1.90;1.80;;;2.10;99.90;;;;;;5035384;28;20228;-67
2023/02/13 08:19:58;;;;;;;3.53;2.13;;;2.10;99.90;;;;;;5047842;28;20632;-67
2023/02/13 08:22:25;;;;;;;3.45;1.35;;;2.10;99.90;;;;;;5047858;28;20303;-66
2023/02/13 08:24:52;;;;;;;3.42;2.55;;;2.20;99.90;;;;;;5047978;28;20208;-66
2023/02/13 08:27:18;;;;;;;4.75;3.05;;;2.30;99.90;;;;;;5041029;28;20227;-66
2023/02/13 08:29:45;;;;;;;1.83;1.73;;;2.40;99.90;;;;;;5028152;28;20254;-66
2023/02/13 08:32:12;;;;;;;4.10;2.85;;;2.40;99.90;;;;;;5032785;28;20228;-66
2023/02/13 08:34:39;;;;;;;3.03;2.78;;;2.50;99.90;;;;;;5048622;28;20200;-66
2023/02/13 08:37:07;;;;;;;8.63;2.42;;;2.60;99.90;;;;;;5049223;28;20244;-66
2023/02/13 08:39:34;;;;;;;3.58;2.88;;;2.70;99.90;;;;;;5054222;28;20206;-66
2023/02/13 08:42:00;;;;;;;4.00;2.70;;;2.80;99.90;;;;;;5043375;28;20216;-67
2023/02/13 08:44:27;;;;;;;2.97;2.03;;;2.90;99.90;;;;;;5039126;28;20208;-67
2023/02/13 08:46:54;;;;;;;2.38;2.17;;;2.90;99.90;;;;;;5028855;28;20425;-66
2023/02/13 08:49:22;;;;;;;2.75;2.40;;;3.00;99.90;;;;;;5027878;28;20224;-67
2023/02/13 08:51:49;;;;;;;1.08;1.00;;;3.10;99.90;;;;;;5028012;28;20229;-67
2023/02/13 08:54:17;;;;;;;6.05;1.33;;;3.20;99.90;;;;;;5028690;28;20201;-67
2023/02/13 08:56:44;;;;;;;2.08;1.98;;;3.30;99.90;;;;;;5027730;28;20248;-65
2023/02/13 08:59:11;;;;;;;3.13;2.88;;;3.30;99.90;;;;;;5035353;28;20211;-66
2023/02/13 09:01:38;;;;;;;2.03;1.92;;;3.50;99.90;;;;;;5046197;28;20217;-65
2023/02/13 09:04:04;;;;;;;2.60;1.60;;;3.50;99.90;;;;;;5042406;28;20223;-67
2023/02/13 09:06:31;;;;;;;3.35;1.73;;;3.60;99.90;;;;;;5037916;28;20302;-68
2023/02/13 09:08:58;;;;;;;5.75;1.95;;;3.90;99.90;;;;;;5040792;28;20204;-67
2023/02/13 09:11:26;;;;;;;1.63;1.25;;;3.70;99.90;;;;;;5038328;28;20224;-66
2023/02/13 09:13:53;;;;;;;9.82;4.22;;;3.90;99.90;;;;;;5047640;28;20202;-66
2023/02/13 09:16:20;;;;;;;2.53;2.33;;;3.90;99.90;;;;;;5047024;28;20239;-66
2023/02/13 09:18:47;;;;;;;3.53;2.35;;;3.90;99.90;;;;;;5035842;28;20388;-65
2023/02/13 09:21:15;;;;;;;2.28;2.00;;;4.00;99.90;;;;;;5027637;28;20340;-65
2023/02/13 09:23:42;;;;;;;2.35;1.83;;;4.10;99.90;;;;;;5031474;28;20212;-66
2023/02/13 09:26:10;;;;;;;3.83;3.58;;;4.20;99.90;;;;;;5037188;28;20288;-66
2023/02/13 09:28:39;;;;;;;8.35;2.60;;;4.20;99.90;;;;;;5041497;28;20271;-66
2023/02/13 09:31:06;;;;;;;1.50;1.40;;;4.20;99.90;;;;;;5047310;28;20239;-66
2023/02/13 09:33:33;;;;;;;2.50;2.35;;;4.30;99.90;;;;;;5048096;28;20261;-67
2023/02/13 09:36:04;;;;;;;6.07;4.13;;;4.10;99.90;;;;;;5046567;28;20231;-65
2023/02/13 09:38:31;;;;;;;5.88;3.28;;;4.20;99.90;;;;;;5045520;28;20922;-68
2023/02/13 09:41:02;;;;;;;6.28;4.35;;;4.20;99.90;;;;;;5063728;28;20226;-66
2023/02/13 09:43:31;;;;;;;5.47;3.30;;;4.30;99.90;;;;;;5068197;28;20282;-66
2023/02/13 09:46:04;;;;;;;3.95;3.17;;;4.40;99.90;;;;;;5054175;28;20255;-66
2023/02/13 09:48:34;;;;;;;2.53;2.30;;;4.50;99.90;;;;;;5034362;28;20201;-67
2023/02/13 09:51:01;;;;;;;3.17;2.97;;;4.70;99.90;;;;;;5037230;28;20242;-66
2023/02/13 09:53:32;;;;;;;10.00;4.45;;;4.60;99.90;;;;;;5048020;28;20206;-66
2023/02/13 09:56:08;;;;;;;5.47;3.63;;;4.60;99.90;;;;;;5047569;28;20232;-66
2023/02/13 09:58:47;;;;;;;2.35;1.98;;;4.70;99.90;;;;;;5047018;28;20242;-66
2023/02/13 10:01:28;;;;;;;3.78;3.33;;;4.70;99.90;;;;;;5037988;28;20243;-67
2023/02/13 10:04:16;;;;;;;3.03;2.08;;;4.80;99.90;;;;;;5027691;28;20204;-66
2023/02/13 10:06:49;;;;;;;4.80;4.00;;;4.80;99.90;;;;;;5027111;28;20742;-65
2023/02/13 10:09:27;;;;;;;5.00;3.00;;;4.80;99.90;;;;;;5026660;28;20754;-66
2023/02/13 10:12:22;;;;;;;4.78;3.17;;;4.90;99.90;;;;;;5026616;28;20702;-66
2023/02/13 10:15:00;;;;;;;9.93;2.67;;;4.90;99.90;;;;;;5038024;28;20209;-66
2023/02/13 10:17:32;;;;;;;2.92;2.45;;;4.80;99.90;;;;;;5044583;28;20228;-66
2023/02/13 10:20:02;;;;;;;5.60;3.97;;;5.00;99.90;;;;;;5026009;28;20709;-67
2023/02/13 10:22:33;;;;;;;2.00;1.55;;;4.90;99.90;;;;;;5027166;28;20192;-66
2023/02/13 10:25:04;;;;;;;6.05;4.13;;;4.90;99.90;;;;;;5027390;28;20209;-66
2023/02/13 10:27:35;;;;;;;6.50;3.83;;;4.90;99.90;;;;;;5039030;28;20671;-68
2023/02/13 10:30:11;;;;;;;4.93;3.60;;;5.60;99.90;;;;;;5026577;28;20260;-67
2023/02/13 10:33:09;;;;;;;4.53;3.22;;;5.00;99.90;;;;;;5027227;28;20207;-66
2023/02/13 10:35:38;;;;;;;5.68;1.52;;;5.10;99.90;;;;;;5026789;28;20236;-66
2023/02/13 10:38:15;;;;;;;3.70;3.25;;;5.30;99.90;;;;;;5035995;28;20211;-65
2023/02/13 10:40:55;;;;;;;3.70;3.15;;;5.20;99.70;;;;;;5060738;28;20223;-66
2023/02/13 10:43:25;;;;;;;4.25;2.45;;;5.30;99.90;;;;;;5067297;28;20203;-66
2023/02/13 10:46:04;;;;;;;4.10;2.80;;;5.30;99.90;;;;;;5066837;28;20292;-65
2023/02/13 10:48:55;;;;;;;2.50;2.30;;;5.30;99.90;;;;;;5065945;28;20252;-67
2023/02/13 10:51:29;;;;;;;3.90;1.95;;;5.30;99.90;;;;;;5044726;28;20246;-66
2023/02/13 10:54:14;;;;;;;4.22;2.42;;;5.40;99.50;;;;;;5034218;28;20193;-66
2023/02/13 10:56:45;;;;;;;5.07;3.95;;;5.40;99.50;;;;;;5031183;28;20226;-66
2023/02/13 10:59:32;;;;;;;2.67;2.33;;;5.50;98.70;;;;;;5036482;28;20730;-67
2023/02/13 11:02:11;;;;;;;2.35;2.15;;;5.50;98.90;;;;;;5042101;28;20311;-66
2023/02/13 11:04:43;;;;;;;2.30;2.10;;;5.60;98.50;;;;;;5040384;28;21083;-66
2023/02/13 11:07:14;;;;;;;5.75;3.78;;;5.60;98.40;;;;;;5048891;28;20224;-66
2023/02/13 11:09:43;;;;;;;3.28;2.40;;;5.70;98.70;;;;;;5040424;28;20279;-66
2023/02/13 11:12:25;;;;;;;4.72;2.83;;;5.70;99.90;;;;;;5048025;28;20330;-66
2023/02/13 11:14:55;;;;;;;2.88;2.53;;;5.80;98.40;;;;;;5030438;28;20204;-66
2023/02/13 11:17:24;;;;;;;2.50;2.15;;;5.80;98.60;;;;;;5030623;28;20240;-66
2023/02/13 11:19:55;;;;;;;7.63;3.20;;;5.80;98.50;;;;;;5029453;28;20197;-66
2023/02/13 11:22:32;;;;;;;4.70;4.30;;;5.90;98.80;;;;;;5029085;28;20734;-67
2023/02/13 11:25:02;;;;;;;3.85;2.25;;;5.90;98.40;;;;;;5030542;28;20244;-66
2023/02/13 11:27:33;;;;;;;5.10;3.15;;;5.90;98.10;;;;;;5030607;28;20291;-66
2023/02/13 11:30:03;;;;;;;2.17;1.42;;;6.00;97.60;;;;;;5028514;28;20727;-66
2023/02/13 11:32:32;;;;;;;3.83;2.97;;;6.00;97.60;;;;;;5032348;28;20208;-68
2023/02/13 11:35:27;;;;;;;3.17;2.90;;;6.00;97.40;;;;;;5033885;28;20189;-66
2023/02/13 11:38:21;;;;;;;5.20;2.75;;;6.10;96.90;;;;;;5057569;28;20613;-66
2023/02/13 11:40:51;;;;;;;6.70;2.58;;;6.30;96.50;;;;;;5054066;28;20224;-66
2023/02/13 11:43:23;;;;;;;1.73;1.63;;;6.30;97.20;;;;;;5049745;28;20199;-66
2023/02/13 11:46:02;;;;;;;2.03;1.88;;;6.20;96.50;;;;;;5048114;28;20234;-66
2023/02/13 11:48:29;;;;;;;7.28;3.55;;;6.30;96.50;;;;;;5027625;28;20209;-66
2023/02/13 11:50:57;;;;;;;1.90;1.42;;;6.40;96.10;;;;;;5029436;28;20236;-66
2023/02/13 11:53:27;;;;;;;3.00;2.70;;;6.50;96.10;;;;;;5029825;28;20196;-66
2023/02/13 11:56:07;;;;;;;1.88;1.70;;;6.60;99.90;;;;;;5027534;28;20335;-66
2023/02/13 11:58:34;;;;;;;3.08;2.38;;;6.30;99.80;;;;;;5028187;28;20271;-66
2023/02/13 12:01:11;;;;;;;4.15;2.85;;;6.40;96.10;;;;;;5028667;28;20228;-66
2023/02/13 12:03:38;;;;;;;1.67;1.55;;;6.50;99.50;;;;;;5029449;28;20204;-66
2023/02/13 12:06:12;;;;;;;1.88;1.65;;;6.50;96.30;;;;;;5027983;28;20335;-66
2023/02/13 12:08:41;;;;;;;5.15;3.60;;;6.50;95.80;;;;;;5028503;28;20231;-66
2023/02/13 12:11:20;;;;;;;3.40;2.42;;;6.50;95.50;;;;;;5028672;28;20236;-66
2023/02/13 12:13:48;;;;;;;3.40;3.05;;;6.60;95.90;;;;;;5029881;28;20206;-66
2023/02/13 12:16:26;;;;;;;3.60;3.25;;;6.60;96.20;;;;;;5028480;28;20232;-65
2023/02/13 12:18:58;;;;;;;5.03;4.45;;;6.60;96.50;;;;;;5047026;28;20555;-65
2023/02/13 12:21:41;;;;;;;5.00;2.90;;;6.60;96.30;;;;;;5048198;28;20220;-66
2023/02/13 12:24:18;;;;;;;2.17;1.90;;;6.60;96.50;;;;;;5029321;28;20685;-66
2023/02/13 12:26:51;;;;;;;3.17;2.25;;;6.60;96.70;;;;;;5027870;28;20254;-66
2023/02/13 12:29:32;;;;;;;6.72;2.40;;;6.80;97.40;;;;;;5027918;28;20253;-66
2023/02/13 12:32:10;;;;;;;2.80;2.60;;;6.70;99.90;;;;;;5028811;28;20240;-66
2023/02/13 12:35:18;;;;;;;4.95;3.45;;;6.70;96.20;;;;;;5028848;28;20231;-65
2023/02/13 12:37:55;;;;;;;2.00;1.85;;;6.80;95.90;;;;;;5035652;28;20206;-65
2023/02/13 12:40:56;;;;;;;3.22;2.95;;;6.80;96.10;;;;;;5058718;28;20726;-65
2023/02/13 12:43:42;;;;;;;4.20;3.22;;;6.80;95.90;;;;;;5021452;28;20231;-65
2023/02/13 12:46:15;;;;;;;2.95;2.33;;;6.90;95.70;;;;;;5028276;28;20646;-66
2023/02/13 12:48:52;;;;;;;4.18;3.00;;;6.80;99.60;;;;;;5039215;28;20500;-66
2023/02/13 12:51:36;;;;;;;2.83;2.63;;;6.90;95.90;;;;;;5047237;28;20241;-66
2023/02/13 12:54:33;;;;;;;2.88;2.65;;;6.90;96.20;;;;;;5048961;28;20212;-67
2023/02/13 12:57:15;;;;;;;7.13;4.57;;;6.90;96.30;;;;;;5047623;28;20238;-67
2023/02/13 12:59:56;;;;;;;3.55;3.35;;;7.00;96.30;;;;;;5046985;28;20666;-66
2023/02/13 13:02:47;;;;;;;6.18;3.60;;;7.00;99.00;;;;;;5046786;28;20224;-65
2023/02/13 13:05:29;;;;;;;4.00;3.67;;;7.00;96.70;;;;;;5044457;28;20206;-66
2023/02/13 13:08:14;;;;;;;4.15;3.75;;;7.00;96.50;;;;;;5028404;28;20584;-66
2023/02/13 13:10:59;;;;;;;4.78;3.92;;;7.10;96.40;;;;;;5037756;28;20215;-66
2023/02/13 13:13:38;;;;;;;3.95;3.58;;;7.10;96.40;;;;;;5047729;28;20202;-65
2023/02/13 13:16:09;;;;;;;4.57;4.28;;;7.10;96.50;;;;;;5047727;28;20605;-66
2023/02/13 13:18:50;;;;;;;6.18;3.88;;;7.10;96.70;;;;;;5047097;28;20198;-66
2023/02/13 13:21:26;;;;;;;4.38;3.95;;;7.20;96.30;;;;;;5042585;28;20219;-66
2023/02/13 13:23:59;;;;;;;4.20;3.53;;;7.20;96.40;;;;;;5031691;28;20622;-65
2023/02/13 13:26:35;;;;;;;4.85;4.22;;;7.20;99.90;;;;;;5035931;28;20251;-66
2023/02/13 13:29:06;;;;;;;5.05;3.85;;;7.20;96.10;;;;;;5031906;28;20563;-66
2023/02/13 13:31:35;;;;;;;3.70;2.85;;;7.20;96.30;;;;;;5047311;28;20236;-67
2023/02/13 13:34:07;;;;;;;5.00;3.33;;;7.20;96.40;;;;;;5044952;28;20201;-66
2023/02/13 13:36:43;;;;;;;7.67;4.10;;;7.20;96.50;;;;;;5033893;28;21216;-66
2023/02/13 13:39:21;;;;;;;7.53;3.90;;;7.30;97.00;;;;;;5052613;28;20762;-66
2023/02/13 13:41:54;;;;;;;8.93;2.67;;;7.20;96.50;;;;;;5065456;28;20231;-66
2023/02/13 13:44:43;;;;;;;8.57;3.88;;;7.30;96.50;;;;;;5041984;28;21267;-66
2023/02/13 13:47:24;;;;;;;4.05;3.72;;;7.30;96.40;;;;;;5027337;28;20583;-66
2023/02/13 13:49:54;;;;;;;4.87;4.17;;;7.30;96.40;;;;;;5027472;28;20629;-66
2023/02/13 13:52:26;;;;;;;3.88;2.85;;;7.70;99.10;;;;;;5027349;28;20666;-67
2023/02/13 13:54:54;;;;;;;4.93;3.53;;;7.40;95.90;;;;;;5027834;28;20208;-66
2023/02/13 13:57:23;;;;;;;5.40;3.77;;;7.30;96.10;;;;;;5040370;28;20650;-66
2023/02/13 14:00:25;;;;;;;3.57;3.23;;;7.40;96.30;;;;;;5027179;28;20950;-66